Flight Track Log - Related Links

Times and Time Zones

All times are in EDT time to prevent confusion due to time zone crossing. See the N593MS flight status page for this flight to view local times or setup timezone preferences in your user account.

Time Position Orientation Groundspeed Altitude Reporting Facility
EDT Latitude Longitude Course Direction KTS MPH feet Rate Location/Type
Wed 12:01:35 PM 40.0758 -83.0858 97° East 105 121 1,200  Level Indianapolis Center
Wed 12:02:24 PM 40.0869 -83.1014 313° West 102 117 1,800 661 Climbing Indianapolis Center
Wed 12:03:24 PM 40.1144 -83.0975 North 94 108 2,400 550 Climbing Indianapolis Center
Wed 12:04:13 PM 40.1342 -83.0947 North 97 112 2,800 486 Climbing Indianapolis Center
Wed 12:05:15 PM 40.1564 -83.0769 31° Northeast 117 135 3,300 532 Climbing Indianapolis Center
Wed 12:06:17 PM 40.1508 -83.0333 99° East 122 140 3,900 581 Climbing Indianapolis Center
Wed 12:07:00 PM 40.0336 -82.7362 97° East  Level FlightAware Approximate
Wed 12:07:19 PM 40.1442 -82.9811 99° East 122 140 4,500  Level Indianapolis Center
Wed 12:08:21 PM 40.1367 -82.9367 102° East 123 142 5,000 484 Climbing Indianapolis Center
Wed 12:09:23 PM 40.1311 -82.8925 99° East 124 143 5,500 532 Climbing Indianapolis Center
Wed 12:10:25 PM 40.1247 -82.8461 100° East 126 145 6,100 532 Climbing Indianapolis Center
Wed 12:11:27 PM 40.1192 -82.7997 99° East 127 146 6,600 435 Climbing Indianapolis Center
Wed 12:12:29 PM 40.1133 -82.7525 99° East 130 150 7,000 238 Climbing Indianapolis Center
Wed 12:13:33 PM 40.1042 -82.6939 102° East 148 170 7,100  Climbing Indianapolis Center
Wed 12:14:33 PM 40.0986 -82.6450 98° East 150 173 7,000 -49 Descending Indianapolis Center
Wed 12:15:35 PM 40.0908 -82.5775 99° East 158 182 7,000  Level Indianapolis Center
Wed 12:16:36 PM 40.0833 -82.5228 100° East 154 177 7,000  Level Indianapolis Center
Wed 12:17:38 PM 40.0753 -82.4686 101° East 152 175 7,000 48 Level Indianapolis Center
Wed 12:18:40 PM 40.0686 -82.4122 99° East 154 177 7,100 48 Climbing Indianapolis Center
Wed 12:19:42 PM 40.0611 -82.3575 100° East 153 176 7,100  Level Indianapolis Center
Wed 12:20:44 PM 40.0525 -82.2983 101° East 163 188 7,100  Level Indianapolis Center
Wed 12:21:46 PM 40.0450 -82.2408 100° East 161 185 7,100  Level Indianapolis Center
Wed 12:22:48 PM 40.0375 -82.1819 99° East 162 186 7,100  Level Indianapolis Center
Wed 12:23:50 PM 40.0278 -82.1122 100° East 166 191 7,100  Level Indianapolis Center
Wed 12:24:52 PM 40.0214 -82.0547 98° East 161 185 7,100  Level Indianapolis Center
Wed 12:25:54 PM 40.0147 -81.9947 98° East 165 190 7,100  Level Indianapolis Center
Wed 12:26:55 PM 40.0047 -81.9364 103° East 165 190 7,100  Level Indianapolis Center
Wed 12:27:57 PM 39.9969 -81.8783 100° East 161 185 7,100  Level Indianapolis Center
Wed 12:28:59 PM 39.9889 -81.8197 100° East 162 186 7,100  Level Indianapolis Center
Wed 12:30:01 PM 39.9814 -81.7631 100° East 161 185 7,100  Level Indianapolis Center
Wed 12:31:03 PM 39.9717 -81.6950 101° East 162 186 7,100  Level Indianapolis Center
Wed 12:32:05 PM 39.9628 -81.6364 101° East 162 186 7,100 -48 Level Indianapolis Center
Wed 12:33:07 PM 39.9550 -81.5772 100° East 162 186 7,000 97 Descending Indianapolis Center
Wed 12:34:09 PM 39.9469 -81.5203 100° East 161 185 7,300 387 Climbing Indianapolis Center
Wed 12:35:11 PM 39.9394 -81.4692 101° East 147 169 7,800 439 Climbing Indianapolis Center
Wed 12:36:12 PM 39.9325 -81.4253 102° East 140 161 8,200 439 Climbing Indianapolis Center
Wed 12:37:14 PM 39.9244 -81.3669 100° East 136 157 8,700 435 Climbing Indianapolis Center
Wed 12:38:16 PM 39.9178 -81.3189 100° East 135 155 9,100 194 Climbing Indianapolis Center
Wed 12:39:18 PM 39.9108 -81.2669 100° East 144 166 9,100  Level Indianapolis Center
Wed 12:40:20 PM 39.9022 -81.2092 101° East 159 183 9,100  Level Indianapolis Center
Wed 12:41:22 PM 39.8939 -81.1528 101° East 158 182 9,100  Level Indianapolis Center
Wed 12:42:24 PM 39.8867 -81.0944 99° East 161 185 9,100 194 Level Indianapolis Center
Wed 12:43:26 PM 39.8775 -81.0403 102° East 154 177 9,500 404 Climbing Indianapolis Center
Wed 12:45:22 PM 39.8644 -80.9347 99° East 143 165 10,300 409 Climbing Cleveland Center
Wed 12:46:22 PM 39.8583 -80.8833 99° East 143 165 10,700 400 Climbing Cleveland Center
Wed 12:47:22 PM 39.8500 -80.8400 104° East 133 153 11,100 200 Climbing Cleveland Center
Wed 12:48:22 PM 39.8397 -80.7886 105° East 128 147 11,100  Level Cleveland Center
Wed 12:49:22 PM 39.8314 -80.7264 100° East 150 173 11,100  Level Cleveland Center
Wed 12:50:22 PM 39.8233 -80.6669 100° East 164 189 11,100  Level Cleveland Center
Wed 12:51:22 PM 39.8150 -80.6075 100° East 164 189 11,100  Level Cleveland Center
Wed 12:52:22 PM 39.8044 -80.5533 104° East 157 181 11,100 -50 Level Cleveland Center
Wed 12:53:22 PM 39.7942 -80.4911 102° East 157 181 11,000 -50 Descending Cleveland Center
Wed 12:54:22 PM 39.7878 -80.4264 97° East 172 198 11,000  Level Cleveland Center
Wed 12:55:22 PM 39.7772 -80.3725 104° East 159 183 11,000  Level Cleveland Center
Wed 12:56:22 PM 39.7689 -80.3131 100° East 159 183 11,000 50 Level Cleveland Center
Wed 12:57:22 PM 39.7581 -80.2508 103° East 165 190 11,100  Climbing Cleveland Center
Wed 12:58:22 PM 39.7475 -80.1917 103° East 165 190 11,000  Descending Cleveland Center
Wed 12:59:22 PM 39.7411 -80.1350 98° East 159 183 11,100 50 Climbing Cleveland Center
Wed 01:00:22 PM 39.7347 -80.0808 99° East 164 189 11,100  Level Cleveland Center
Wed 01:01:22 PM 39.7261 -80.0217 101° East 164 189 11,100  Level Cleveland Center
Wed 01:02:22 PM 39.7153 -79.9650 104° East 164 189 11,100  Level Cleveland Center
Wed 01:03:22 PM 39.7044 -79.9058 103° East 164 189 11,100  Level Cleveland Center
Wed 01:05:00 PM 39.6919 -79.8092 100° East 165 190 11,100  Level Washington Center
Wed 01:06:01 PM 39.6814 -79.7519 103° East 165 190 11,100  Level Washington Center
Wed 01:07:01 PM 39.6731 -79.6950 101° East 165 190 11,100 50 Level Washington Center
Wed 01:08:01 PM 39.6667 -79.6381 98° East 165 190 11,200 51 Climbing Washington Center
Wed 01:08:59 PM 39.6539 -79.5806 106° East 160 184 11,200 -50 Level Washington Center
Wed 01:10:00 PM 39.6453 -79.5236 101° East 160 184 11,100 -49 Descending Washington Center
Wed 01:11:01 PM 39.6369 -79.4639 100° East 165 190 11,100 50 Level Washington Center
Wed 01:11:59 PM 39.6261 -79.4094 104° East 165 190 11,200 50 Climbing Washington Center
Wed 01:13:00 PM 39.6197 -79.3525 98° East 165 190 11,200  Level Washington Center
Wed 01:14:01 PM 39.6089 -79.2953 104° East 165 190 11,200  Level Washington Center
Wed 01:15:01 PM 39.6003 -79.2383 101° East 160 184 11,200 -50 Level Washington Center
Wed 01:16:01 PM 39.5894 -79.1811 104° East 160 184 11,100 -51 Descending Washington Center
Wed 01:16:59 PM 39.5806 -79.1242 101° East 160 184 11,100  Level Washington Center
Wed 01:18:00 PM 39.5719 -79.0644 101° East 166 191 11,100 -49 Level Washington Center
Wed 01:19:01 PM 39.5631 -79.0103 102° East 166 191 11,000  Descending Washington Center
Wed 01:20:01 PM 39.5522 -78.9558 104° East 166 191 11,100  Climbing Washington Center
Wed 01:20:59 PM 39.5433 -78.8964 101° East 166 191 11,000  Descending Washington Center
Wed 01:22:00 PM 39.5344 -78.8394 101° East 166 191 11,100  Climbing Washington Center
Wed 01:23:01 PM 39.5236 -78.7822 104° East 166 191 11,000 -252 Descending Washington Center
Wed 01:23:59 PM 39.5125 -78.7228 104° East 166 191 10,600 -403 Descending Washington Center
Wed 01:25:00 PM 39.5017 -78.6603 103° East 166 191 10,200 -446 Descending Washington Center
Wed 01:26:00 PM 39.4908 -78.5981 103° East 166 191 9,700 -496 Descending Washington Center
Wed 01:27:01 PM 39.4817 -78.5386 101° East 166 191 9,200 -454 Descending Washington Center
Wed 01:27:59 PM 39.4750 -78.4736 98° East 166 191 8,800 -403 Descending Washington Center
Wed 01:29:00 PM 39.4661 -78.4142 101° East 166 191 8,400 -400 Descending Washington Center
Wed 01:29:59 PM 39.4569 -78.3519 101° East 166 191 8,000 -400 Descending Washington Center
Wed 01:31:00 PM 39.4478 -78.2953 102° East 166 191 7,600 -397 Descending Washington Center
Wed 01:32:00 PM 39.4389 -78.2358 101° East 166 191 7,200 -450 Descending Washington Center
Wed 01:33:00 PM 39.4317 -78.1764 99° East 166 191 6,700 -492 Descending Washington Center
Wed 01:34:02 PM 39.4331 -78.1172 88° East 161 185 6,200 -504 Descending Washington Center
Wed 01:34:59 PM 39.4342 -78.0583 89° East 161 185 5,700 -513 Descending Washington Center
Wed 01:35:59 PM 39.4333 -77.9964 91° East 161 185 5,200 -496 Descending Washington Center
Wed 01:37:00 PM 39.4261 -77.9397 99° East 161 185 4,700 -398 Descending Washington Center
Wed 01:39:30 PM 39.3833 -77.8000 112° Southeast 158 182 3,800 -313 Descending Potomac TRACON
Wed 01:40:31 PM 39.3833 -77.7500 90° East 155 178 3,600 -198 Descending Potomac TRACON
Wed 01:41:31 PM 39.3667 -77.6833 108° East 157 181 3,400 -52 Descending Potomac TRACON
Wed 01:42:26 PM 39.3500 -77.6500 123° Southeast 152 175 3,500 52 Climbing Potomac TRACON
Wed 01:43:26 PM 39.3333 -77.5833 108° East 154 177 3,500 50 Level Potomac TRACON
Wed 01:44:26 PM 39.3333 -77.5333 90° East 152 175 3,600  Climbing Potomac TRACON
Wed 01:45:26 PM 39.3167 -77.4833 113° Southeast 147 169 3,500 -99 Descending Potomac TRACON
Wed 01:46:27 PM 39.3000 -77.4333 113° Southeast 152 175 3,400  Descending Potomac TRACON
Wed 01:47:27 PM 39.2833 -77.3833 113° Southeast 148 170 3,500  Climbing Potomac TRACON
Wed 01:48:27 PM 39.2667 -77.3333 113° Southeast 157 181 3,400 -200 Descending Potomac TRACON
Wed 01:49:27 PM 39.2500 -77.3000 123° Southeast 159 183 3,100 -429 Descending Potomac TRACON
Wed 01:50:33 PM 39.2167 -77.2333 123° Southeast 157 181 2,500 -476 Descending Potomac TRACON
Wed 01:51:33 PM 39.2000 -77.2000 123° Southeast 150 173 2,100 -400 Descending Potomac TRACON
Wed 01:52:33 PM 39.1833 -77.1667 123° Southeast 111 128 1,700 -347 Descending Potomac TRACON
Wed 01:53:34 PM 39.1667 -77.1333 123° Southeast 88 101 1,400 -347 Descending Potomac TRACON
Wed 01:54:34 PM 39.1500 -77.1500 218° Southwest 103 119 1,000 -400 Descending Potomac TRACON
Wed 01:56:00 PM 39.1683 -77.1660 23° Northeast  Level Estimated
Wed 02:03:00 PM 39.1683 -77.1660 206° Southwest  Level Estimated
Wed 02:04:00 PM 39.1683 -77.1660 28° Northeast  Level Estimated
Wed 02:05:00 PM 39.1683 -77.1660 28° Northeast  Level Estimated
Wed 02:06:00 PM 39.1683 -77.1660 28° Northeast  Level Estimated

Login

Don't have an account? Register now (free) for customized features, flight alerts, and more!